sensor_id;sensor_type;location;lat;lon;timestamp;P1;durP1;ratioP1;P2;durP2;ratioP2
19971;SDS011;10147;16.402;102.848;2023-03-23T00:00:19;72.10;;;53.35;;
19971;SDS011;10147;16.402;102.848;2023-03-23T00:02:47;69.45;;;53.00;;
19971;SDS011;10147;16.402;102.848;2023-03-23T00:05:15;68.68;;;52.05;;
19971;SDS011;10147;16.402;102.848;2023-03-23T00:07:44;62.40;;;51.33;;
19971;SDS011;10147;16.402;102.848;2023-03-23T00:10:12;62.10;;;50.70;;
19971;SDS011;10147;16.402;102.848;2023-03-23T00:12:41;63.95;;;49.90;;
19971;SDS011;10147;16.402;102.848;2023-03-23T00:15:11;66.95;;;50.75;;
19971;SDS011;10147;16.402;102.848;2023-03-23T00:17:43;60.67;;;48.70;;
19971;SDS011;10147;16.402;102.848;2023-03-23T00:20:11;58.67;;;49.65;;
19971;SDS011;10147;16.402;102.848;2023-03-23T00:22:39;67.75;;;50.28;;
19971;SDS011;10147;16.402;102.848;2023-03-23T00:25:08;62.67;;;50.13;;
19971;SDS011;10147;16.402;102.848;2023-03-23T00:27:36;55.90;;;44.95;;
19971;SDS011;10147;16.402;102.848;2023-03-23T00:30:05;57.83;;;45.85;;
19971;SDS011;10147;16.402;102.848;2023-03-23T00:32:33;65.28;;;45.58;;
19971;SDS011;10147;16.402;102.848;2023-03-23T00:35:01;60.03;;;45.42;;
19971;SDS011;10147;16.402;102.848;2023-03-23T00:37:29;56.85;;;45.33;;
19971;SDS011;10147;16.402;102.848;2023-03-23T00:39:59;52.17;;;42.67;;
19971;SDS011;10147;16.402;102.848;2023-03-23T00:42:27;53.13;;;43.13;;
19971;SDS011;10147;16.402;102.848;2023-03-23T00:44:55;49.08;;;42.17;;
19971;SDS011;10147;16.402;102.848;2023-03-23T00:47:27;49.30;;;41.22;;
19971;SDS011;10147;16.402;102.848;2023-03-23T00:49:57;50.97;;;41.40;;
19971;SDS011;10147;16.402;102.848;2023-03-23T00:52:24;56.25;;;43.30;;
19971;SDS011;10147;16.402;102.848;2023-03-23T00:54:53;49.63;;;41.55;;
19971;SDS011;10147;16.402;102.848;2023-03-23T00:57:21;48.33;;;40.35;;
19971;SDS011;10147;16.402;102.848;2023-03-23T00:59:51;44.55;;;37.67;;
19971;SDS011;10147;16.402;102.848;2023-03-23T01:02:19;49.25;;;38.63;;
19971;SDS011;10147;16.402;102.848;2023-03-23T01:04:51;47.38;;;37.30;;
19971;SDS011;10147;16.402;102.848;2023-03-23T01:07:20;46.03;;;38.47;;
19971;SDS011;10147;16.402;102.848;2023-03-23T01:09:50;47.00;;;36.50;;
19971;SDS011;10147;16.402;102.848;2023-03-23T01:12:20;47.97;;;40.30;;
19971;SDS011;10147;16.402;102.848;2023-03-23T01:14:51;45.20;;;38.72;;
19971;SDS011;10147;16.402;102.848;2023-03-23T01:17:18;49.60;;;36.10;;
19971;SDS011;10147;16.402;102.848;2023-03-23T01:19:47;44.00;;;37.58;;
19971;SDS011;10147;16.402;102.848;2023-03-23T01:22:16;50.70;;;37.70;;
19971;SDS011;10147;16.402;102.848;2023-03-23T01:24:44;48.63;;;35.90;;
19971;SDS011;10147;16.402;102.848;2023-03-23T01:27:12;50.03;;;37.38;;
19971;SDS011;10147;16.402;102.848;2023-03-23T01:29:40;46.13;;;36.03;;
19971;SDS011;10147;16.402;102.848;2023-03-23T01:32:09;44.88;;;36.40;;
19971;SDS011;10147;16.402;102.848;2023-03-23T01:34:38;43.45;;;35.58;;
19971;SDS011;10147;16.402;102.848;2023-03-23T01:37:06;44.97;;;35.03;;
19971;SDS011;10147;16.402;102.848;2023-03-23T01:39:38;47.28;;;39.58;;
19971;SDS011;10147;16.402;102.848;2023-03-23T01:42:09;49.38;;;39.78;;
19971;SDS011;10147;16.402;102.848;2023-03-23T01:47:25;42.17;;;35.53;;
19971;SDS011;10147;16.402;102.848;2023-03-23T01:49:54;45.47;;;35.40;;
19971;SDS011;10147;16.402;102.848;2023-03-23T01:52:23;43.88;;;32.95;;
19971;SDS011;10147;16.402;102.848;2023-03-23T01:54:56;43.08;;;35.92;;
19971;SDS011;10147;16.402;102.848;2023-03-23T01:57:25;46.08;;;36.67;;
19971;SDS011;10147;16.402;102.848;2023-03-23T01:59:56;44.42;;;34.33;;
19971;SDS011;10147;16.402;102.848;2023-03-23T02:02:40;45.42;;;36.38;;
19971;SDS011;10147;16.402;102.848;2023-03-23T02:05:12;42.15;;;34.72;;
19971;SDS011;10147;16.402;102.848;2023-03-23T02:07:43;48.08;;;35.58;;
19971;SDS011;10147;16.402;102.848;2023-03-23T02:10:12;39.78;;;34.70;;
19971;SDS011;10147;16.402;102.848;2023-03-23T02:12:42;47.05;;;33.90;;
19971;SDS011;10147;16.402;102.848;2023-03-23T02:15:13;48.30;;;34.85;;
19971;SDS011;10147;16.402;102.848;2023-03-23T02:17:50;41.65;;;34.60;;
19971;SDS011;10147;16.402;102.848;2023-03-23T02:37:16;39.60;;;32.20;;
19971;SDS011;10147;16.402;102.848;2023-03-23T02:39:47;36.65;;;32.65;;
19971;SDS011;10147;16.402;102.848;2023-03-23T02:42:18;39.78;;;31.70;;
19971;SDS011;10147;16.402;102.848;2023-03-23T02:44:48;38.03;;;32.08;;
19971;SDS011;10147;16.402;102.848;2023-03-23T02:47:19;38.17;;;32.05;;
19971;SDS011;10147;16.402;102.848;2023-03-23T02:49:49;37.35;;;30.48;;
19971;SDS011;10147;16.402;102.848;2023-03-23T02:52:37;33.75;;;29.33;;
19971;SDS011;10147;16.402;102.848;2023-03-23T02:55:07;43.33;;;31.20;;
19971;SDS011;10147;16.402;102.848;2023-03-23T02:57:38;35.38;;;30.10;;
19971;SDS011;10147;16.402;102.848;2023-03-23T03:00:14;35.92;;;30.77;;
19971;SDS011;10147;16.402;102.848;2023-03-23T03:02:43;38.33;;;30.13;;
19971;SDS011;10147;16.402;102.848;2023-03-23T03:05:20;36.42;;;30.60;;
19971;SDS011;10147;16.402;102.848;2023-03-23T03:10:42;36.50;;;30.60;;
19971;SDS011;10147;16.402;102.848;2023-03-23T03:13:21;35.45;;;31.63;;
19971;SDS011;10147;16.402;102.848;2023-03-23T03:15:57;33.95;;;30.30;;
19971;SDS011;10147;16.402;102.848;2023-03-23T03:18:28;38.67;;;32.05;;
19971;SDS011;10147;16.402;102.848;2023-03-23T03:21:02;37.90;;;30.52;;
19971;SDS011;10147;16.402;102.848;2023-03-23T03:23:33;38.17;;;31.95;;
19971;SDS011;10147;16.402;102.848;2023-03-23T03:26:03;35.75;;;29.70;;
19971;SDS011;10147;16.402;102.848;2023-03-23T03:28:41;47.22;;;42.08;;
19971;SDS011;10147;16.402;102.848;2023-03-23T03:31:12;45.08;;;40.30;;
19971;SDS011;10147;16.402;102.848;2023-03-23T03:33:39;39.58;;;33.65;;
19971;SDS011;10147;16.402;102.848;2023-03-23T03:36:08;43.05;;;31.25;;
19971;SDS011;10147;16.402;102.848;2023-03-23T03:38:43;41.40;;;32.08;;
19971;SDS011;10147;16.402;102.848;2023-03-23T03:41:13;36.72;;;30.92;;
19971;SDS011;10147;16.402;102.848;2023-03-23T03:43:41;38.38;;;31.92;;
19971;SDS011;10147;16.402;102.848;2023-03-23T03:46:10;40.70;;;33.13;;
19971;SDS011;10147;16.402;102.848;2023-03-23T03:48:38;40.30;;;32.47;;
19971;SDS011;10147;16.402;102.848;2023-03-23T03:51:06;36.65;;;32.05;;
19971;SDS011;10147;16.402;102.848;2023-03-23T03:53:41;37.42;;;32.38;;
19971;SDS011;10147;16.402;102.848;2023-03-23T03:56:09;40.75;;;32.92;;
19971;SDS011;10147;16.402;102.848;2023-03-23T03:58:46;35.95;;;32.17;;
19971;SDS011;10147;16.402;102.848;2023-03-23T04:01:23;45.75;;;33.53;;
19971;SDS011;10147;16.402;102.848;2023-03-23T04:03:51;37.47;;;31.55;;
19971;SDS011;10147;16.402;102.848;2023-03-23T04:06:28;35.42;;;31.40;;
19971;SDS011;10147;16.402;102.848;2023-03-23T04:08:57;36.92;;;32.08;;
19971;SDS011;10147;16.402;102.848;2023-03-23T04:11:28;38.67;;;33.40;;
19971;SDS011;10147;16.402;102.848;2023-03-23T04:14:14;37.40;;;33.30;;
19971;SDS011;10147;16.402;102.848;2023-03-23T04:16:44;37.47;;;33.00;;
19971;SDS011;10147;16.402;102.848;2023-03-23T04:19:12;44.13;;;33.13;;
19971;SDS011;10147;16.402;102.848;2023-03-23T04:21:40;37.00;;;32.38;;
19971;SDS011;10147;16.402;102.848;2023-03-23T04:24:08;39.15;;;32.60;;
19971;SDS011;10147;16.402;102.848;2023-03-23T04:26:37;34.42;;;30.77;;
19971;SDS011;10147;16.402;102.848;2023-03-23T04:29:15;37.05;;;31.65;;
19971;SDS011;10147;16.402;102.848;2023-03-23T04:32:03;35.33;;;30.30;;
19971;SDS011;10147;16.402;102.848;2023-03-23T04:34:37;37.90;;;31.10;;
19971;SDS011;10147;16.402;102.848;2023-03-23T04:37:05;39.38;;;32.47;;
19971;SDS011;10147;16.402;102.848;2023-03-23T04:39:36;36.42;;;32.33;;
19971;SDS011;10147;16.402;102.848;2023-03-23T04:42:06;41.20;;;37.15;;
19971;SDS011;10147;16.402;102.848;2023-03-23T04:44:56;43.28;;;38.75;;
19971;SDS011;10147;16.402;102.848;2023-03-23T04:47:31;44.40;;;40.00;;
19971;SDS011;10147;16.402;102.848;2023-03-23T04:50:15;47.92;;;43.10;;
19971;SDS011;10147;16.402;102.848;2023-03-23T04:52:44;36.10;;;32.50;;
19971;SDS011;10147;16.402;102.848;2023-03-23T04:55:14;37.70;;;32.83;;
19971;SDS011;10147;16.402;102.848;2023-03-23T04:57:48;38.03;;;33.03;;
19971;SDS011;10147;16.402;102.848;2023-03-23T05:00:36;35.78;;;31.75;;
19971;SDS011;10147;16.402;102.848;2023-03-23T05:03:04;35.90;;;31.88;;
19971;SDS011;10147;16.402;102.848;2023-03-23T05:05:35;37.03;;;31.30;;
19971;SDS011;10147;16.402;102.848;2023-03-23T05:08:06;34.45;;;30.60;;
19971;SDS011;10147;16.402;102.848;2023-03-23T05:10:49;35.45;;;31.73;;
19971;SDS011;10147;16.402;102.848;2023-03-23T05:13:18;39.60;;;32.45;;
19971;SDS011;10147;16.402;102.848;2023-03-23T05:15:50;38.60;;;32.55;;
19971;SDS011;10147;16.402;102.848;2023-03-23T05:18:18;35.10;;;31.42;;
19971;SDS011;10147;16.402;102.848;2023-03-23T05:20:48;35.08;;;29.48;;
19971;SDS011;10147;16.402;102.848;2023-03-23T05:23:21;33.45;;;29.80;;
19971;SDS011;10147;16.402;102.848;2023-03-23T05:26:01;35.53;;;30.20;;
19971;SDS011;10147;16.402;102.848;2023-03-23T05:28:29;33.65;;;30.10;;
19971;SDS011;10147;16.402;102.848;2023-03-23T05:31:18;34.58;;;30.45;;
19971;SDS011;10147;16.402;102.848;2023-03-23T05:33:46;33.35;;;29.05;;
19971;SDS011;10147;16.402;102.848;2023-03-23T05:36:27;34.25;;;30.58;;
19971;SDS011;10147;16.402;102.848;2023-03-23T05:39:11;34.92;;;31.27;;
19971;SDS011;10147;16.402;102.848;2023-03-23T05:42:03;34.13;;;30.58;;
19971;SDS011;10147;16.402;102.848;2023-03-23T05:44:42;32.78;;;29.30;;
19971;SDS011;10147;16.402;102.848;2023-03-23T05:47:12;31.50;;;28.27;;
19971;SDS011;10147;16.402;102.848;2023-03-23T05:49:46;32.80;;;29.40;;
19971;SDS011;10147;16.402;102.848;2023-03-23T05:52:18;36.28;;;31.17;;
19971;SDS011;10147;16.402;102.848;2023-03-23T05:54:47;35.13;;;31.40;;
19971;SDS011;10147;16.402;102.848;2023-03-23T05:57:15;33.72;;;29.95;;
19971;SDS011;10147;16.402;102.848;2023-03-23T05:59:51;30.85;;;27.55;;
19971;SDS011;10147;16.402;102.848;2023-03-23T06:02:23;36.65;;;27.55;;
19971;SDS011;10147;16.402;102.848;2023-03-23T06:04:52;29.42;;;26.42;;
19971;SDS011;10147;16.402;102.848;2023-03-23T06:07:28;30.33;;;25.80;;
19971;SDS011;10147;16.402;102.848;2023-03-23T06:10:03;32.75;;;29.10;;
19971;SDS011;10147;16.402;102.848;2023-03-23T06:12:38;34.15;;;30.52;;
19971;SDS011;10147;16.402;102.848;2023-03-23T06:15:17;30.52;;;27.35;;
19971;SDS011;10147;16.402;102.848;2023-03-23T06:18:05;35.33;;;25.60;;
19971;SDS011;10147;16.402;102.848;2023-03-23T06:20:53;33.83;;;27.98;;
19971;SDS011;10147;16.402;102.848;2023-03-23T06:23:39;33.75;;;30.35;;
19971;SDS011;10147;16.402;102.848;2023-03-23T06:26:07;33.97;;;30.48;;
19971;SDS011;10147;16.402;102.848;2023-03-23T06:28:38;33.17;;;29.67;;
19971;SDS011;10147;16.402;102.848;2023-03-23T06:31:06;32.85;;;28.05;;
19971;SDS011;10147;16.402;102.848;2023-03-23T06:33:36;30.15;;;27.02;;
19971;SDS011;10147;16.402;102.848;2023-03-23T06:36:23;31.13;;;27.90;;
19971;SDS011;10147;16.402;102.848;2023-03-23T06:39:07;32.22;;;28.80;;
19971;SDS011;10147;16.402;102.848;2023-03-23T06:41:56;31.83;;;28.45;;
19971;SDS011;10147;16.402;102.848;2023-03-23T06:44:29;32.35;;;28.88;;
19971;SDS011;10147;16.402;102.848;2023-03-23T06:46:58;34.15;;;30.40;;
19971;SDS011;10147;16.402;102.848;2023-03-23T06:49:30;35.22;;;31.70;;
19971;SDS011;10147;16.402;102.848;2023-03-23T06:52:09;36.60;;;30.95;;
19971;SDS011;10147;16.402;102.848;2023-03-23T06:54:37;35.03;;;31.23;;
19971;SDS011;10147;16.402;102.848;2023-03-23T06:57:07;35.08;;;31.02;;
19971;SDS011;10147;16.402;102.848;2023-03-23T06:59:36;33.20;;;29.40;;
19971;SDS011;10147;16.402;102.848;2023-03-23T07:02:05;38.25;;;30.17;;
19971;SDS011;10147;16.402;102.848;2023-03-23T07:04:37;35.38;;;29.52;;
19971;SDS011;10147;16.402;102.848;2023-03-23T07:07:10;35.35;;;30.42;;
19971;SDS011;10147;16.402;102.848;2023-03-23T07:09:48;39.55;;;28.60;;
19971;SDS011;10147;16.402;102.848;2023-03-23T07:12:21;37.55;;;28.77;;
19971;SDS011;10147;16.402;102.848;2023-03-23T07:14:50;33.22;;;29.23;;
19971;SDS011;10147;16.402;102.848;2023-03-23T07:17:18;38.28;;;30.73;;
19971;SDS011;10147;16.402;102.848;2023-03-23T07:20:02;46.15;;;31.48;;
19971;SDS011;10147;16.402;102.848;2023-03-23T07:22:32;56.25;;;32.60;;
19971;SDS011;10147;16.402;102.848;2023-03-23T07:25:09;44.33;;;31.52;;
19971;SDS011;10147;16.402;102.848;2023-03-23T07:27:47;48.42;;;31.75;;
19971;SDS011;10147;16.402;102.848;2023-03-23T07:30:17;47.42;;;33.15;;
19971;SDS011;10147;16.402;102.848;2023-03-23T07:32:46;43.00;;;32.63;;
19971;SDS011;10147;16.402;102.848;2023-03-23T07:35:14;39.17;;;31.27;;
19971;SDS011;10147;16.402;102.848;2023-03-23T07:37:51;32.42;;;27.85;;
19971;SDS011;10147;16.402;102.848;2023-03-23T07:40:20;31.17;;;26.85;;
19971;SDS011;10147;16.402;102.848;2023-03-23T07:42:52;32.17;;;27.77;;
19971;SDS011;10147;16.402;102.848;2023-03-23T07:45:38;25.20;;;22.65;;
19971;SDS011;10147;16.402;102.848;2023-03-23T07:48:06;26.40;;;23.60;;
19971;SDS011;10147;16.402;102.848;2023-03-23T07:50:34;26.90;;;23.35;;
19971;SDS011;10147;16.402;102.848;2023-03-23T07:53:08;26.52;;;23.73;;
19971;SDS011;10147;16.402;102.848;2023-03-23T07:55:37;28.55;;;25.42;;
19971;SDS011;10147;16.402;102.848;2023-03-23T07:58:16;26.75;;;22.98;;
19971;SDS011;10147;16.402;102.848;2023-03-23T08:00:48;29.33;;;24.83;;
19971;SDS011;10147;16.402;102.848;2023-03-23T08:03:19;34.42;;;28.17;;
19971;SDS011;10147;16.402;102.848;2023-03-23T08:05:52;43.58;;;28.25;;
19971;SDS011;10147;16.402;102.848;2023-03-23T08:08:40;34.72;;;29.17;;
19971;SDS011;10147;16.402;102.848;2023-03-23T08:11:28;32.65;;;29.13;;
19971;SDS011;10147;16.402;102.848;2023-03-23T08:14:16;40.55;;;31.58;;
19971;SDS011;10147;16.402;102.848;2023-03-23T08:16:58;35.83;;;29.50;;
19971;SDS011;10147;16.402;102.848;2023-03-23T08:19:36;32.67;;;26.58;;
19971;SDS011;10147;16.402;102.848;2023-03-23T08:22:24;33.58;;;23.30;;
19971;SDS011;10147;16.402;102.848;2023-03-23T08:25:13;23.15;;;17.35;;
19971;SDS011;10147;16.402;102.848;2023-03-23T08:28:00;32.55;;;21.10;;
19971;SDS011;10147;16.402;102.848;2023-03-23T08:30:39;31.08;;;24.63;;
19971;SDS011;10147;16.402;102.848;2023-03-23T08:33:28;31.38;;;24.00;;
19971;SDS011;10147;16.402;102.848;2023-03-23T08:36:15;31.13;;;23.58;;
19971;SDS011;10147;16.402;102.848;2023-03-23T08:39:04;44.85;;;21.52;;
19971;SDS011;10147;16.402;102.848;2023-03-23T08:41:50;30.55;;;21.05;;
19971;SDS011;10147;16.402;102.848;2023-03-23T08:44:34;31.67;;;20.33;;
19971;SDS011;10147;16.402;102.848;2023-03-23T08:47:15;23.77;;;21.15;;
19971;SDS011;10147;16.402;102.848;2023-03-23T08:49:59;26.80;;;21.48;;
19971;SDS011;10147;16.402;102.848;2023-03-23T08:52:48;21.70;;;18.90;;
19971;SDS011;10147;16.402;102.848;2023-03-23T08:55:36;35.33;;;18.83;;
19971;SDS011;10147;16.402;102.848;2023-03-23T08:58:26;33.42;;;19.00;;
19971;SDS011;10147;16.402;102.848;2023-03-23T09:01:14;35.83;;;18.70;;
19971;SDS011;10147;16.402;102.848;2023-03-23T09:03:53;26.77;;;18.10;;
19971;SDS011;10147;16.402;102.848;2023-03-23T09:06:40;26.95;;;23.05;;
19971;SDS011;10147;16.402;102.848;2023-03-23T09:09:09;32.20;;;28.90;;
19971;SDS011;10147;16.402;102.848;2023-03-23T09:11:38;47.67;;;39.72;;
19971;SDS011;10147;16.402;102.848;2023-03-23T09:14:07;37.67;;;30.92;;
19971;SDS011;10147;16.402;102.848;2023-03-23T09:16:36;30.90;;;26.73;;
19971;SDS011;10147;16.402;102.848;2023-03-23T09:19:04;30.17;;;26.02;;
19971;SDS011;10147;16.402;102.848;2023-03-23T09:21:32;20.30;;;18.10;;
19971;SDS011;10147;16.402;102.848;2023-03-23T09:24:00;20.33;;;17.60;;
19971;SDS011;10147;16.402;102.848;2023-03-23T09:26:28;25.02;;;19.67;;
19971;SDS011;10147;16.402;102.848;2023-03-23T09:28:57;27.33;;;19.20;;
19971;SDS011;10147;16.402;102.848;2023-03-23T09:31:25;30.55;;;24.75;;
19971;SDS011;10147;16.402;102.848;2023-03-23T09:33:55;33.10;;;27.23;;
19971;SDS011;10147;16.402;102.848;2023-03-23T09:36:23;38.17;;;29.48;;
19971;SDS011;10147;16.402;102.848;2023-03-23T09:38:52;38.33;;;31.00;;
19971;SDS011;10147;16.402;102.848;2023-03-23T09:49:56;38.28;;;30.98;;
19971;SDS011;10147;16.402;102.848;2023-03-23T09:52:31;42.38;;;32.17;;
19971;SDS011;10147;16.402;102.848;2023-03-23T09:55:00;40.47;;;31.67;;
19971;SDS011;10147;16.402;102.848;2023-03-23T10:00:30;37.70;;;27.92;;
19971;SDS011;10147;16.402;102.848;2023-03-23T10:03:05;36.30;;;28.45;;
19971;SDS011;10147;16.402;102.848;2023-03-23T10:05:42;44.22;;;30.05;;
19971;SDS011;10147;16.402;102.848;2023-03-23T10:08:12;38.05;;;30.30;;
19971;SDS011;10147;16.402;102.848;2023-03-23T10:13:43;32.50;;;28.67;;
19971;SDS011;10147;16.402;102.848;2023-03-23T10:16:19;35.47;;;31.20;;
19971;SDS011;10147;16.402;102.848;2023-03-23T10:21:40;40.85;;;33.38;;
19971;SDS011;10147;16.402;102.848;2023-03-23T10:24:09;37.75;;;33.63;;
19971;SDS011;10147;16.402;102.848;2023-03-23T10:29:29;44.15;;;38.10;;
19971;SDS011;10147;16.402;102.848;2023-03-23T10:31:59;42.33;;;37.90;;
19971;SDS011;10147;16.402;102.848;2023-03-23T10:34:32;41.58;;;34.03;;
19971;SDS011;10147;16.402;102.848;2023-03-23T10:37:12;40.70;;;34.33;;
19971;SDS011;10147;16.402;102.848;2023-03-23T10:39:54;40.15;;;35.20;;
19971;SDS011;10147;16.402;102.848;2023-03-23T10:42:26;43.35;;;35.30;;
19971;SDS011;10147;16.402;102.848;2023-03-23T10:44:55;46.65;;;36.38;;
19971;SDS011;10147;16.402;102.848;2023-03-23T10:47:23;40.45;;;35.33;;
19971;SDS011;10147;16.402;102.848;2023-03-23T10:49:56;39.90;;;35.42;;
19971;SDS011;10147;16.402;102.848;2023-03-23T10:52:39;45.58;;;34.47;;
19971;SDS011;10147;16.402;102.848;2023-03-23T10:55:09;42.70;;;35.17;;
19971;SDS011;10147;16.402;102.848;2023-03-23T10:57:40;47.85;;;37.78;;
19971;SDS011;10147;16.402;102.848;2023-03-23T11:03:06;70.22;;;48.97;;
19971;SDS011;10147;16.402;102.848;2023-03-23T11:05:38;51.05;;;42.90;;
19971;SDS011;10147;16.402;102.848;2023-03-23T11:08:12;46.90;;;41.80;;
19971;SDS011;10147;16.402;102.848;2023-03-23T11:10:47;57.40;;;41.20;;
19971;SDS011;10147;16.402;102.848;2023-03-23T11:13:15;56.83;;;41.28;;
19971;SDS011;10147;16.402;102.848;2023-03-23T11:15:46;72.75;;;50.83;;
19971;SDS011;10147;16.402;102.848;2023-03-23T11:18:19;64.50;;;47.30;;
19971;SDS011;10147;16.402;102.848;2023-03-23T11:20:49;62.40;;;48.97;;
19971;SDS011;10147;16.402;102.848;2023-03-23T11:23:20;75.05;;;56.88;;
19971;SDS011;10147;16.402;102.848;2023-03-23T11:28:41;63.28;;;47.78;;
19971;SDS011;10147;16.402;102.848;2023-03-23T11:31:10;77.15;;;49.75;;
19971;SDS011;10147;16.402;102.848;2023-03-23T11:33:41;70.82;;;46.97;;
19971;SDS011;10147;16.402;102.848;2023-03-23T11:36:09;63.45;;;43.47;;
19971;SDS011;10147;16.402;102.848;2023-03-23T11:38:42;66.13;;;46.40;;
19971;SDS011;10147;16.402;102.848;2023-03-23T11:41:11;69.72;;;42.85;;
19971;SDS011;10147;16.402;102.848;2023-03-23T11:43:41;64.95;;;42.60;;
19971;SDS011;10147;16.402;102.848;2023-03-23T11:46:22;61.78;;;45.42;;
19971;SDS011;10147;16.402;102.848;2023-03-23T11:48:55;68.65;;;47.13;;
19971;SDS011;10147;16.402;102.848;2023-03-23T11:54:15;69.10;;;47.30;;
19971;SDS011;10147;16.402;102.848;2023-03-23T11:56:45;66.78;;;49.40;;
19971;SDS011;10147;16.402;102.848;2023-03-23T11:59:15;62.90;;;47.25;;
19971;SDS011;10147;16.402;102.848;2023-03-23T12:01:55;70.65;;;53.10;;
19971;SDS011;10147;16.402;102.848;2023-03-23T12:04:31;62.40;;;45.00;;
19971;SDS011;10147;16.402;102.848;2023-03-23T12:07:07;67.55;;;51.90;;
19971;SDS011;10147;16.402;102.848;2023-03-23T12:12:31;60.42;;;45.00;;
19971;SDS011;10147;16.402;102.848;2023-03-23T12:15:08;63.97;;;48.05;;
19971;SDS011;10147;16.402;102.848;2023-03-23T12:17:51;69.32;;;50.80;;
19971;SDS011;10147;16.402;102.848;2023-03-23T12:20:31;71.43;;;51.95;;
19971;SDS011;10147;16.402;102.848;2023-03-23T12:23:21;79.55;;;55.78;;
19971;SDS011;10147;16.402;102.848;2023-03-23T12:26:00;79.93;;;59.72;;
19971;SDS011;10147;16.402;102.848;2023-03-23T12:31:31;70.45;;;53.78;;
19971;SDS011;10147;16.402;102.848;2023-03-23T12:36:59;69.32;;;50.65;;
19971;SDS011;10147;16.402;102.848;2023-03-23T12:45:15;60.63;;;49.00;;
19971;SDS011;10147;16.402;102.848;2023-03-23T12:47:46;63.90;;;47.88;;
19971;SDS011;10147;16.402;102.848;2023-03-23T12:53:08;71.43;;;50.88;;
19971;SDS011;10147;16.402;102.848;2023-03-23T12:55:39;78.93;;;57.38;;
19971;SDS011;10147;16.402;102.848;2023-03-23T12:58:15;95.75;;;67.18;;
19971;SDS011;10147;16.402;102.848;2023-03-23T13:00:56;109.00;;;74.82;;
19971;SDS011;10147;16.402;102.848;2023-03-23T13:09:05;341.10;;;275.67;;
19971;SDS011;10147;16.402;102.848;2023-03-23T13:11:37;128.52;;;102.13;;
19971;SDS011;10147;16.402;102.848;2023-03-23T13:22:37;91.97;;;62.53;;
19971;SDS011;10147;16.402;102.848;2023-03-23T13:25:15;92.68;;;62.20;;
19971;SDS011;10147;16.402;102.848;2023-03-23T13:30:34;104.60;;;68.78;;
19971;SDS011;10147;16.402;102.848;2023-03-23T13:33:03;94.75;;;62.15;;
19971;SDS011;10147;16.402;102.848;2023-03-23T13:35:36;93.28;;;61.55;;
19971;SDS011;10147;16.402;102.848;2023-03-23T13:40:53;106.15;;;61.90;;
19971;SDS011;10147;16.402;102.848;2023-03-23T13:43:31;95.93;;;60.10;;
19971;SDS011;10147;16.402;102.848;2023-03-23T13:48:49;91.78;;;60.33;;
19971;SDS011;10147;16.402;102.848;2023-03-23T13:56:58;73.60;;;53.22;;
19971;SDS011;10147;16.402;102.848;2023-03-23T13:59:28;76.38;;;54.17;;
19971;SDS011;10147;16.402;102.848;2023-03-23T14:04:45;70.28;;;50.03;;
19971;SDS011;10147;16.402;102.848;2023-03-23T14:07:15;74.05;;;48.80;;
19971;SDS011;10147;16.402;102.848;2023-03-23T14:09:45;64.97;;;48.17;;
19971;SDS011;10147;16.402;102.848;2023-03-23T14:12:17;62.40;;;47.05;;
19971;SDS011;10147;16.402;102.848;2023-03-23T14:14:48;66.35;;;48.50;;
19971;SDS011;10147;16.402;102.848;2023-03-23T14:17:18;78.95;;;50.90;;
19971;SDS011;10147;16.402;102.848;2023-03-23T14:19:53;65.20;;;49.90;;
19971;SDS011;10147;16.402;102.848;2023-03-23T14:22:33;67.32;;;48.40;;
19971;SDS011;10147;16.402;102.848;2023-03-23T14:25:12;61.22;;;47.35;;
19971;SDS011;10147;16.402;102.848;2023-03-23T14:27:40;57.20;;;43.67;;
19971;SDS011;10147;16.402;102.848;2023-03-23T14:30:13;55.60;;;42.22;;
19971;SDS011;10147;16.402;102.848;2023-03-23T14:32:41;47.67;;;38.33;;
19971;SDS011;10147;16.402;102.848;2023-03-23T14:35:19;51.67;;;38.65;;
19971;SDS011;10147;16.402;102.848;2023-03-23T14:37:48;42.63;;;35.45;;
19971;SDS011;10147;16.402;102.848;2023-03-23T14:40:17;44.20;;;35.28;;
19971;SDS011;10147;16.402;102.848;2023-03-23T14:42:45;46.05;;;36.83;;
19971;SDS011;10147;16.402;102.848;2023-03-23T14:45:17;42.45;;;35.83;;
19971;SDS011;10147;16.402;102.848;2023-03-23T14:47:50;44.35;;;35.45;;
19971;SDS011;10147;16.402;102.848;2023-03-23T14:50:29;60.75;;;53.85;;
19971;SDS011;10147;16.402;102.848;2023-03-23T14:53:03;42.63;;;38.00;;
19971;SDS011;10147;16.402;102.848;2023-03-23T14:55:35;40.65;;;36.15;;
19971;SDS011;10147;16.402;102.848;2023-03-23T14:58:07;49.90;;;33.30;;
19971;SDS011;10147;16.402;102.848;2023-03-23T15:00:37;38.80;;;32.15;;
19971;SDS011;10147;16.402;102.848;2023-03-23T15:03:07;41.05;;;33.17;;
19971;SDS011;10147;16.402;102.848;2023-03-23T15:05:39;38.67;;;32.03;;
19971;SDS011;10147;16.402;102.848;2023-03-23T15:08:14;40.15;;;33.15;;
19971;SDS011;10147;16.402;102.848;2023-03-23T15:10:50;36.08;;;31.00;;
19971;SDS011;10147;16.402;102.848;2023-03-23T15:13:19;38.30;;;32.53;;
19971;SDS011;10147;16.402;102.848;2023-03-23T15:15:48;38.83;;;32.83;;
19971;SDS011;10147;16.402;102.848;2023-03-23T15:18:25;38.38;;;31.95;;
19971;SDS011;10147;16.402;102.848;2023-03-23T15:20:55;39.83;;;31.88;;
19971;SDS011;10147;16.402;102.848;2023-03-23T15:23:27;40.00;;;31.13;;
19971;SDS011;10147;16.402;102.848;2023-03-23T15:25:57;35.45;;;30.95;;
19971;SDS011;10147;16.402;102.848;2023-03-23T15:28:32;42.85;;;32.38;;
19971;SDS011;10147;16.402;102.848;2023-03-23T15:31:01;37.85;;;30.33;;
19971;SDS011;10147;16.402;102.848;2023-03-23T15:33:34;41.42;;;31.77;;
19971;SDS011;10147;16.402;102.848;2023-03-23T15:36:22;38.55;;;30.58;;
19971;SDS011;10147;16.402;102.848;2023-03-23T15:38:50;37.33;;;30.80;;
19971;SDS011;10147;16.402;102.848;2023-03-23T15:41:26;47.15;;;31.70;;
19971;SDS011;10147;16.402;102.848;2023-03-23T15:43:55;37.30;;;30.10;;
19971;SDS011;10147;16.402;102.848;2023-03-23T15:46:28;36.38;;;30.30;;
19971;SDS011;10147;16.402;102.848;2023-03-23T15:49:08;36.72;;;31.65;;
19971;SDS011;10147;16.402;102.848;2023-03-23T15:51:36;39.40;;;31.52;;
19971;SDS011;10147;16.402;102.848;2023-03-23T15:54:07;34.65;;;30.75;;
19971;SDS011;10147;16.402;102.848;2023-03-23T15:56:35;41.38;;;31.98;;
19971;SDS011;10147;16.402;102.848;2023-03-23T15:59:04;36.25;;;31.63;;
19971;SDS011;10147;16.402;102.848;2023-03-23T16:01:34;38.40;;;31.55;;
19971;SDS011;10147;16.402;102.848;2023-03-23T16:04:07;40.58;;;33.30;;
19971;SDS011;10147;16.402;102.848;2023-03-23T16:06:38;37.28;;;31.33;;
19971;SDS011;10147;16.402;102.848;2023-03-23T16:09:15;40.85;;;31.88;;